sensor_id;sensor_type;location;lat;lon;timestamp;P1;durP1;ratioP1;P2;durP2;ratioP2
61322;SDS011;47203;48.428;11.974;2024-01-30T00:01:31;10.90;;;7.35;;
61322;SDS011;47203;48.428;11.974;2024-01-30T00:03:35;11.38;;;7.18;;
61322;SDS011;47203;48.428;11.974;2024-01-30T00:05:39;11.23;;;7.47;;
61322;SDS011;47203;48.428;11.974;2024-01-30T00:07:43;12.48;;;8.80;;
61322;SDS011;47203;48.428;11.974;2024-01-30T00:09:46;10.35;;;8.27;;
61322;SDS011;47203;48.428;11.974;2024-01-30T00:11:50;12.07;;;7.97;;
61322;SDS011;47203;48.428;11.974;2024-01-30T00:13:55;12.70;;;7.88;;
61322;SDS011;47203;48.428;11.974;2024-01-30T00:15:59;11.27;;;7.75;;
61322;SDS011;47203;48.428;11.974;2024-01-30T00:18:03;11.23;;;8.57;;
61322;SDS011;47203;48.428;11.974;2024-01-30T00:20:07;12.00;;;8.98;;
61322;SDS011;47203;48.428;11.974;2024-01-30T00:22:12;13.25;;;8.25;;
61322;SDS011;47203;48.428;11.974;2024-01-30T00:24:16;9.60;;;7.85;;
61322;SDS011;47203;48.428;11.974;2024-01-30T00:26:20;11.13;;;7.88;;
61322;SDS011;47203;48.428;11.974;2024-01-30T00:28:23;13.35;;;8.30;;
61322;SDS011;47203;48.428;11.974;2024-01-30T00:30:28;11.43;;;7.53;;
61322;SDS011;47203;48.428;11.974;2024-01-30T00:32:32;10.55;;;7.53;;
61322;SDS011;47203;48.428;11.974;2024-01-30T00:34:34;10.23;;;7.63;;
61322;SDS011;47203;48.428;11.974;2024-01-30T00:36:38;11.63;;;7.75;;
61322;SDS011;47203;48.428;11.974;2024-01-30T00:38:42;12.48;;;8.57;;
61322;SDS011;47203;48.428;11.974;2024-01-30T00:40:46;10.18;;;7.90;;
61322;SDS011;47203;48.428;11.974;2024-01-30T00:42:49;10.43;;;7.55;;
61322;SDS011;47203;48.428;11.974;2024-01-30T00:44:52;10.60;;;7.68;;
61322;SDS011;47203;48.428;11.974;2024-01-30T00:46:57;9.82;;;7.75;;
61322;SDS011;47203;48.428;11.974;2024-01-30T00:49:00;11.40;;;8.07;;
61322;SDS011;47203;48.428;11.974;2024-01-30T00:51:04;11.57;;;7.47;;
61322;SDS011;47203;48.428;11.974;2024-01-30T00:53:08;10.40;;;7.72;;
61322;SDS011;47203;48.428;11.974;2024-01-30T00:55:11;10.68;;;7.68;;
61322;SDS011;47203;48.428;11.974;2024-01-30T00:57:15;14.18;;;8.13;;
61322;SDS011;47203;48.428;11.974;2024-01-30T00:59:19;10.25;;;8.32;;
61322;SDS011;47203;48.428;11.974;2024-01-30T01:01:22;14.63;;;8.43;;
61322;SDS011;47203;48.428;11.974;2024-01-30T01:03:27;10.98;;;8.05;;
61322;SDS011;47203;48.428;11.974;2024-01-30T01:05:31;11.43;;;8.35;;
61322;SDS011;47203;48.428;11.974;2024-01-30T01:07:35;11.13;;;8.13;;
61322;SDS011;47203;48.428;11.974;2024-01-30T01:09:39;10.23;;;7.60;;
61322;SDS011;47203;48.428;11.974;2024-01-30T01:11:42;11.88;;;8.43;;
61322;SDS011;47203;48.428;11.974;2024-01-30T01:13:46;10.93;;;8.50;;
61322;SDS011;47203;48.428;11.974;2024-01-30T01:15:49;14.95;;;8.38;;
61322;SDS011;47203;48.428;11.974;2024-01-30T01:17:52;10.32;;;7.43;;
61322;SDS011;47203;48.428;11.974;2024-01-30T01:19:57;12.45;;;8.55;;
61322;SDS011;47203;48.428;11.974;2024-01-30T01:22:01;11.48;;;8.73;;
61322;SDS011;47203;48.428;11.974;2024-01-30T01:24:05;16.20;;;8.15;;
61322;SDS011;47203;48.428;11.974;2024-01-30T01:26:09;12.95;;;8.15;;
61322;SDS011;47203;48.428;11.974;2024-01-30T01:28:12;10.63;;;7.75;;
61322;SDS011;47203;48.428;11.974;2024-01-30T01:30:16;12.93;;;8.43;;
61322;SDS011;47203;48.428;11.974;2024-01-30T01:32:23;10.70;;;7.80;;
61322;SDS011;47203;48.428;11.974;2024-01-30T01:34:26;11.23;;;9.05;;
61322;SDS011;47203;48.428;11.974;2024-01-30T01:36:32;11.32;;;8.25;;
61322;SDS011;47203;48.428;11.974;2024-01-30T01:38:36;11.00;;;7.35;;
61322;SDS011;47203;48.428;11.974;2024-01-30T01:40:42;11.07;;;8.18;;
61322;SDS011;47203;48.428;11.974;2024-01-30T01:42:45;11.95;;;7.70;;
61322;SDS011;47203;48.428;11.974;2024-01-30T01:44:48;9.35;;;7.28;;
61322;SDS011;47203;48.428;11.974;2024-01-30T01:46:52;11.93;;;8.43;;
61322;SDS011;47203;48.428;11.974;2024-01-30T01:48:56;14.10;;;8.00;;
61322;SDS011;47203;48.428;11.974;2024-01-30T01:51:01;10.75;;;7.95;;
61322;SDS011;47203;48.428;11.974;2024-01-30T01:53:07;11.52;;;8.60;;
61322;SDS011;47203;48.428;11.974;2024-01-30T01:55:13;10.90;;;7.85;;
61322;SDS011;47203;48.428;11.974;2024-01-30T01:57:19;9.60;;;7.93;;
61322;SDS011;47203;48.428;11.974;2024-01-30T01:59:23;11.25;;;7.32;;
61322;SDS011;47203;48.428;11.974;2024-01-30T02:01:28;10.80;;;7.45;;
61322;SDS011;47203;48.428;11.974;2024-01-30T02:03:33;12.10;;;7.75;;
61322;SDS011;47203;48.428;11.974;2024-01-30T02:05:38;12.18;;;7.75;;
61322;SDS011;47203;48.428;11.974;2024-01-30T02:07:44;12.52;;;8.40;;
61322;SDS011;47203;48.428;11.974;2024-01-30T02:09:48;13.68;;;8.45;;
61322;SDS011;47203;48.428;11.974;2024-01-30T02:11:51;10.73;;;7.82;;
61322;SDS011;47203;48.428;11.974;2024-01-30T02:13:55;11.05;;;8.07;;
61322;SDS011;47203;48.428;11.974;2024-01-30T02:15:58;11.20;;;8.40;;
61322;SDS011;47203;48.428;11.974;2024-01-30T02:18:01;12.98;;;8.75;;
61322;SDS011;47203;48.428;11.974;2024-01-30T02:20:05;10.90;;;7.75;;
61322;SDS011;47203;48.428;11.974;2024-01-30T02:22:12;11.73;;;7.28;;
61322;SDS011;47203;48.428;11.974;2024-01-30T02:24:16;9.48;;;7.80;;
61322;SDS011;47203;48.428;11.974;2024-01-30T02:26:19;11.13;;;7.57;;
61322;SDS011;47203;48.428;11.974;2024-01-30T02:28:23;12.30;;;8.48;;
61322;SDS011;47203;48.428;11.974;2024-01-30T02:30:27;10.70;;;7.15;;
61322;SDS011;47203;48.428;11.974;2024-01-30T02:32:30;11.00;;;8.20;;
61322;SDS011;47203;48.428;11.974;2024-01-30T02:34:34;12.60;;;8.15;;
61322;SDS011;47203;48.428;11.974;2024-01-30T02:36:38;11.82;;;8.65;;
61322;SDS011;47203;48.428;11.974;2024-01-30T02:38:46;12.55;;;8.68;;
61322;SDS011;47203;48.428;11.974;2024-01-30T02:40:49;12.10;;;8.50;;
61322;SDS011;47203;48.428;11.974;2024-01-30T02:42:53;11.52;;;7.97;;
61322;SDS011;47203;48.428;11.974;2024-01-30T02:44:57;9.82;;;7.90;;
61322;SDS011;47203;48.428;11.974;2024-01-30T02:47:01;10.10;;;8.15;;
61322;SDS011;47203;48.428;11.974;2024-01-30T02:49:04;10.57;;;7.75;;
61322;SDS011;47203;48.428;11.974;2024-01-30T02:51:08;11.75;;;9.52;;
61322;SDS011;47203;48.428;11.974;2024-01-30T02:53:10;11.52;;;7.95;;
61322;SDS011;47203;48.428;11.974;2024-01-30T02:55:15;12.85;;;8.85;;
61322;SDS011;47203;48.428;11.974;2024-01-30T02:57:20;11.15;;;8.32;;
61322;SDS011;47203;48.428;11.974;2024-01-30T02:59:24;10.63;;;8.00;;
61322;SDS011;47203;48.428;11.974;2024-01-30T03:01:27;10.52;;;8.02;;
61322;SDS011;47203;48.428;11.974;2024-01-30T03:03:31;13.73;;;8.05;;
61322;SDS011;47203;48.428;11.974;2024-01-30T03:05:35;8.98;;;6.95;;
61322;SDS011;47203;48.428;11.974;2024-01-30T03:07:39;13.65;;;8.88;;
61322;SDS011;47203;48.428;11.974;2024-01-30T03:09:43;11.32;;;7.78;;
61322;SDS011;47203;48.428;11.974;2024-01-30T03:11:48;12.38;;;9.30;;
61322;SDS011;47203;48.428;11.974;2024-01-30T03:13:52;10.20;;;7.82;;
61322;SDS011;47203;48.428;11.974;2024-01-30T03:15:54;14.13;;;8.00;;
61322;SDS011;47203;48.428;11.974;2024-01-30T03:17:58;11.13;;;8.23;;
61322;SDS011;47203;48.428;11.974;2024-01-30T03:20:02;11.25;;;8.10;;
61322;SDS011;47203;48.428;11.974;2024-01-30T03:22:07;11.60;;;7.55;;
61322;SDS011;47203;48.428;11.974;2024-01-30T03:24:11;11.27;;;8.27;;
61322;SDS011;47203;48.428;11.974;2024-01-30T03:26:14;11.45;;;7.88;;
61322;SDS011;47203;48.428;11.974;2024-01-30T03:28:19;11.50;;;7.90;;
61322;SDS011;47203;48.428;11.974;2024-01-30T03:30:23;11.57;;;8.23;;
61322;SDS011;47203;48.428;11.974;2024-01-30T03:32:26;13.75;;;8.20;;
61322;SDS011;47203;48.428;11.974;2024-01-30T03:34:31;10.60;;;7.95;;
61322;SDS011;47203;48.428;11.974;2024-01-30T03:36:34;16.65;;;8.70;;
61322;SDS011;47203;48.428;11.974;2024-01-30T03:38:38;10.75;;;8.15;;
61322;SDS011;47203;48.428;11.974;2024-01-30T03:40:42;11.63;;;8.38;;
61322;SDS011;47203;48.428;11.974;2024-01-30T03:46:55;11.35;;;8.23;;
61322;SDS011;47203;48.428;11.974;2024-01-30T03:48:59;11.20;;;8.13;;
61322;SDS011;47203;48.428;11.974;2024-01-30T03:51:02;14.50;;;8.68;;
61322;SDS011;47203;48.428;11.974;2024-01-30T03:53:07;12.13;;;9.20;;
61322;SDS011;47203;48.428;11.974;2024-01-30T03:55:10;11.32;;;8.65;;
61322;SDS011;47203;48.428;11.974;2024-01-30T03:57:14;12.00;;;10.13;;
61322;SDS011;47203;48.428;11.974;2024-01-30T03:59:18;12.35;;;7.85;;
61322;SDS011;47203;48.428;11.974;2024-01-30T04:01:27;11.60;;;8.48;;
61322;SDS011;47203;48.428;11.974;2024-01-30T04:03:30;13.63;;;8.55;;
61322;SDS011;47203;48.428;11.974;2024-01-30T04:05:33;11.20;;;8.80;;
61322;SDS011;47203;48.428;11.974;2024-01-30T04:07:37;12.80;;;9.20;;
61322;SDS011;47203;48.428;11.974;2024-01-30T04:09:41;13.15;;;10.05;;
61322;SDS011;47203;48.428;11.974;2024-01-30T04:11:43;12.50;;;9.73;;
61322;SDS011;47203;48.428;11.974;2024-01-30T04:13:47;13.27;;;9.80;;
61322;SDS011;47203;48.428;11.974;2024-01-30T04:15:49;12.60;;;9.90;;
61322;SDS011;47203;48.428;11.974;2024-01-30T04:17:56;12.00;;;9.25;;
61322;SDS011;47203;48.428;11.974;2024-01-30T04:19:59;19.85;;;10.25;;
61322;SDS011;47203;48.428;11.974;2024-01-30T04:22:03;13.40;;;8.90;;
61322;SDS011;47203;48.428;11.974;2024-01-30T04:24:07;14.13;;;9.43;;
61322;SDS011;47203;48.428;11.974;2024-01-30T04:26:10;13.00;;;9.70;;
61322;SDS011;47203;48.428;11.974;2024-01-30T04:28:13;13.60;;;10.02;;
61322;SDS011;47203;48.428;11.974;2024-01-30T04:30:17;13.13;;;9.15;;
61322;SDS011;47203;48.428;11.974;2024-01-30T04:32:20;11.00;;;8.35;;
61322;SDS011;47203;48.428;11.974;2024-01-30T04:34:25;12.80;;;8.75;;
61322;SDS011;47203;48.428;11.974;2024-01-30T04:36:29;11.93;;;8.80;;
61322;SDS011;47203;48.428;11.974;2024-01-30T04:38:32;14.20;;;9.45;;
61322;SDS011;47203;48.428;11.974;2024-01-30T04:40:35;14.40;;;10.23;;
61322;SDS011;47203;48.428;11.974;2024-01-30T04:42:39;14.35;;;10.55;;
61322;SDS011;47203;48.428;11.974;2024-01-30T04:44:42;15.77;;;10.15;;
61322;SDS011;47203;48.428;11.974;2024-01-30T04:46:46;11.43;;;9.80;;
61322;SDS011;47203;48.428;11.974;2024-01-30T04:48:49;16.15;;;9.48;;
61322;SDS011;47203;48.428;11.974;2024-01-30T04:50:54;14.60;;;10.68;;
61322;SDS011;47203;48.428;11.974;2024-01-30T04:52:58;12.35;;;9.30;;
61322;SDS011;47203;48.428;11.974;2024-01-30T04:55:01;15.13;;;9.80;;
61322;SDS011;47203;48.428;11.974;2024-01-30T04:57:05;12.88;;;9.40;;
61322;SDS011;47203;48.428;11.974;2024-01-30T04:59:13;13.65;;;11.45;;
61322;SDS011;47203;48.428;11.974;2024-01-30T05:01:17;17.35;;;8.70;;
61322;SDS011;47203;48.428;11.974;2024-01-30T05:03:20;16.48;;;10.35;;
61322;SDS011;47203;48.428;11.974;2024-01-30T05:05:25;14.05;;;10.13;;
61322;SDS011;47203;48.428;11.974;2024-01-30T05:07:30;13.80;;;10.63;;
61322;SDS011;47203;48.428;11.974;2024-01-30T05:09:33;14.18;;;10.52;;
61322;SDS011;47203;48.428;11.974;2024-01-30T05:11:37;13.65;;;9.82;;
61322;SDS011;47203;48.428;11.974;2024-01-30T05:15:43;12.20;;;8.57;;
61322;SDS011;47203;48.428;11.974;2024-01-30T05:17:46;12.93;;;9.10;;
61322;SDS011;47203;48.428;11.974;2024-01-30T05:19:49;16.13;;;10.15;;
61322;SDS011;47203;48.428;11.974;2024-01-30T05:21:52;14.80;;;9.80;;
61322;SDS011;47203;48.428;11.974;2024-01-30T05:23:57;14.02;;;9.13;;
61322;SDS011;47203;48.428;11.974;2024-01-30T05:26:01;11.57;;;9.68;;
61322;SDS011;47203;48.428;11.974;2024-01-30T05:28:04;12.93;;;8.43;;
61322;SDS011;47203;48.428;11.974;2024-01-30T05:30:09;12.50;;;9.75;;
61322;SDS011;47203;48.428;11.974;2024-01-30T05:32:13;14.55;;;9.95;;
61322;SDS011;47203;48.428;11.974;2024-01-30T05:34:17;12.88;;;8.40;;
61322;SDS011;47203;48.428;11.974;2024-01-30T05:36:19;12.30;;;8.90;;
61322;SDS011;47203;48.428;11.974;2024-01-30T05:38:23;10.95;;;8.60;;
61322;SDS011;47203;48.428;11.974;2024-01-30T05:40:28;15.32;;;9.77;;
61322;SDS011;47203;48.428;11.974;2024-01-30T05:42:32;13.50;;;8.68;;
61322;SDS011;47203;48.428;11.974;2024-01-30T05:44:36;13.45;;;9.90;;
61322;SDS011;47203;48.428;11.974;2024-01-30T05:46:38;12.95;;;9.48;;
61322;SDS011;47203;48.428;11.974;2024-01-30T05:48:42;11.25;;;9.55;;
61322;SDS011;47203;48.428;11.974;2024-01-30T05:50:46;13.98;;;9.82;;
61322;SDS011;47203;48.428;11.974;2024-01-30T05:52:49;15.38;;;10.25;;
61322;SDS011;47203;48.428;11.974;2024-01-30T05:54:53;14.55;;;9.70;;
61322;SDS011;47203;48.428;11.974;2024-01-30T05:56:58;15.68;;;9.25;;
61322;SDS011;47203;48.428;11.974;2024-01-30T05:59:00;14.32;;;9.85;;
61322;SDS011;47203;48.428;11.974;2024-01-30T06:01:06;14.30;;;11.18;;
61322;SDS011;47203;48.428;11.974;2024-01-30T06:03:11;16.45;;;10.98;;
61322;SDS011;47203;48.428;11.974;2024-01-30T06:05:14;15.23;;;10.52;;
61322;SDS011;47203;48.428;11.974;2024-01-30T06:07:18;14.38;;;8.90;;
61322;SDS011;47203;48.428;11.974;2024-01-30T06:09:22;14.13;;;11.20;;
61322;SDS011;47203;48.428;11.974;2024-01-30T06:11:25;14.15;;;11.23;;
61322;SDS011;47203;48.428;11.974;2024-01-30T06:13:31;17.85;;;11.38;;
61322;SDS011;47203;48.428;11.974;2024-01-30T06:15:34;16.83;;;10.70;;
61322;SDS011;47203;48.428;11.974;2024-01-30T06:17:38;16.75;;;11.27;;
61322;SDS011;47203;48.428;11.974;2024-01-30T06:19:42;21.48;;;13.13;;
61322;SDS011;47203;48.428;11.974;2024-01-30T06:21:45;14.38;;;10.80;;
61322;SDS011;47203;48.428;11.974;2024-01-30T06:23:49;17.52;;;11.65;;
61322;SDS011;47203;48.428;11.974;2024-01-30T06:25:52;18.85;;;13.57;;
61322;SDS011;47203;48.428;11.974;2024-01-30T06:27:56;23.33;;;14.07;;
61322;SDS011;47203;48.428;11.974;2024-01-30T06:30:01;23.00;;;15.88;;
61322;SDS011;47203;48.428;11.974;2024-01-30T06:32:04;23.17;;;14.88;;
61322;SDS011;47203;48.428;11.974;2024-01-30T06:34:08;22.05;;;13.95;;
61322;SDS011;47203;48.428;11.974;2024-01-30T06:36:13;20.85;;;13.85;;
61322;SDS011;47203;48.428;11.974;2024-01-30T06:38:17;20.85;;;13.80;;
61322;SDS011;47203;48.428;11.974;2024-01-30T06:40:21;21.70;;;13.70;;
61322;SDS011;47203;48.428;11.974;2024-01-30T06:42:23;18.48;;;14.02;;
61322;SDS011;47203;48.428;11.974;2024-01-30T06:44:27;17.70;;;12.68;;
61322;SDS011;47203;48.428;11.974;2024-01-30T06:46:35;20.17;;;12.77;;
61322;SDS011;47203;48.428;11.974;2024-01-30T06:48:39;25.65;;;14.60;;
61322;SDS011;47203;48.428;11.974;2024-01-30T06:50:42;21.63;;;13.25;;
61322;SDS011;47203;48.428;11.974;2024-01-30T06:52:47;18.48;;;13.63;;
61322;SDS011;47203;48.428;11.974;2024-01-30T06:54:50;19.63;;;14.05;;
61322;SDS011;47203;48.428;11.974;2024-01-30T06:56:54;21.90;;;14.50;;
61322;SDS011;47203;48.428;11.974;2024-01-30T06:58:57;20.20;;;13.38;;
61322;SDS011;47203;48.428;11.974;2024-01-30T07:01:01;21.00;;;13.30;;
61322;SDS011;47203;48.428;11.974;2024-01-30T07:03:06;19.58;;;13.50;;
61322;SDS011;47203;48.428;11.974;2024-01-30T07:05:09;23.55;;;12.77;;
61322;SDS011;47203;48.428;11.974;2024-01-30T07:07:13;20.02;;;13.48;;
61322;SDS011;47203;48.428;11.974;2024-01-30T07:09:17;22.65;;;15.05;;
61322;SDS011;47203;48.428;11.974;2024-01-30T07:11:20;23.08;;;14.45;;
61322;SDS011;47203;48.428;11.974;2024-01-30T07:13:25;17.08;;;13.30;;
61322;SDS011;47203;48.428;11.974;2024-01-30T07:15:30;19.83;;;13.70;;
61322;SDS011;47203;48.428;11.974;2024-01-30T07:17:35;22.80;;;15.68;;
61322;SDS011;47203;48.428;11.974;2024-01-30T07:19:41;20.73;;;14.23;;
61322;SDS011;47203;48.428;11.974;2024-01-30T07:21:44;20.83;;;14.93;;
61322;SDS011;47203;48.428;11.974;2024-01-30T07:23:48;22.08;;;14.52;;
61322;SDS011;47203;48.428;11.974;2024-01-30T07:25:51;20.25;;;14.60;;
61322;SDS011;47203;48.428;11.974;2024-01-30T07:27:55;21.13;;;15.27;;
61322;SDS011;47203;48.428;11.974;2024-01-30T07:32:01;21.70;;;15.05;;
61322;SDS011;47203;48.428;11.974;2024-01-30T07:34:05;21.77;;;14.23;;
61322;SDS011;47203;48.428;11.974;2024-01-30T07:36:10;22.75;;;15.45;;
61322;SDS011;47203;48.428;11.974;2024-01-30T07:38:14;19.75;;;14.85;;
61322;SDS011;47203;48.428;11.974;2024-01-30T07:40:17;20.08;;;14.90;;
61322;SDS011;47203;48.428;11.974;2024-01-30T07:42:21;23.65;;;14.98;;
61322;SDS011;47203;48.428;11.974;2024-01-30T07:44:24;21.23;;;14.23;;
61322;SDS011;47203;48.428;11.974;2024-01-30T07:46:27;22.17;;;13.80;;
61322;SDS011;47203;48.428;11.974;2024-01-30T07:48:31;24.10;;;13.13;;
61322;SDS011;47203;48.428;11.974;2024-01-30T07:50:35;19.52;;;13.00;;
61322;SDS011;47203;48.428;11.974;2024-01-30T07:52:40;20.88;;;14.15;;
61322;SDS011;47203;48.428;11.974;2024-01-30T07:54:44;18.05;;;12.50;;
61322;SDS011;47203;48.428;11.974;2024-01-30T07:56:47;20.58;;;14.27;;
61322;SDS011;47203;48.428;11.974;2024-01-30T07:58:51;18.13;;;14.02;;
61322;SDS011;47203;48.428;11.974;2024-01-30T08:00:53;19.13;;;14.68;;
61322;SDS011;47203;48.428;11.974;2024-01-30T08:03:00;28.98;;;18.90;;
61322;SDS011;47203;48.428;11.974;2024-01-30T08:05:03;30.90;;;19.30;;
61322;SDS011;47203;48.428;11.974;2024-01-30T08:07:08;27.17;;;18.92;;
61322;SDS011;47203;48.428;11.974;2024-01-30T08:09:14;25.83;;;18.02;;
61322;SDS011;47203;48.428;11.974;2024-01-30T08:11:17;24.75;;;17.33;;
61322;SDS011;47203;48.428;11.974;2024-01-30T08:13:27;24.15;;;17.70;;
61322;SDS011;47203;48.428;11.974;2024-01-30T08:15:30;23.40;;;15.25;;
61322;SDS011;47203;48.428;11.974;2024-01-30T08:17:34;23.35;;;16.38;;
61322;SDS011;47203;48.428;11.974;2024-01-30T08:19:37;22.42;;;16.20;;
61322;SDS011;47203;48.428;11.974;2024-01-30T08:21:41;21.98;;;15.48;;
61322;SDS011;47203;48.428;11.974;2024-01-30T08:23:44;21.80;;;16.30;;
61322;SDS011;47203;48.428;11.974;2024-01-30T08:25:48;22.50;;;16.98;;
61322;SDS011;47203;48.428;11.974;2024-01-30T08:27:51;24.08;;;17.90;;
61322;SDS011;47203;48.428;11.974;2024-01-30T08:29:55;22.95;;;16.52;;
61322;SDS011;47203;48.428;11.974;2024-01-30T08:31:59;19.52;;;15.18;;
61322;SDS011;47203;48.428;11.974;2024-01-30T08:34:02;20.40;;;14.85;;
61322;SDS011;47203;48.428;11.974;2024-01-30T08:36:08;20.23;;;15.30;;
61322;SDS011;47203;48.428;11.974;2024-01-30T08:38:11;19.83;;;14.13;;
61322;SDS011;47203;48.428;11.974;2024-01-30T08:40:15;19.63;;;13.40;;
61322;SDS011;47203;48.428;11.974;2024-01-30T08:42:20;18.52;;;12.35;;
61322;SDS011;47203;48.428;11.974;2024-01-30T08:44:24;18.75;;;12.73;;
61322;SDS011;47203;48.428;11.974;2024-01-30T08:46:28;17.65;;;13.57;;
61322;SDS011;47203;48.428;11.974;2024-01-30T08:48:32;20.83;;;15.02;;
61322;SDS011;47203;48.428;11.974;2024-01-30T08:50:35;16.83;;;12.40;;
61322;SDS011;47203;48.428;11.974;2024-01-30T08:52:39;15.55;;;12.80;;
61322;SDS011;47203;48.428;11.974;2024-01-30T08:54:41;17.80;;;13.63;;
61322;SDS011;47203;48.428;11.974;2024-01-30T08:56:45;18.88;;;13.30;;
61322;SDS011;47203;48.428;11.974;2024-01-30T08:58:50;15.30;;;13.38;;
61322;SDS011;47203;48.428;11.974;2024-01-30T09:00:54;16.23;;;13.90;;
61322;SDS011;47203;48.428;11.974;2024-01-30T09:02:57;15.48;;;12.43;;
61322;SDS011;47203;48.428;11.974;2024-01-30T09:05:01;19.00;;;14.27;;
61322;SDS011;47203;48.428;11.974;2024-01-30T09:07:05;15.98;;;13.05;;
61322;SDS011;47203;48.428;11.974;2024-01-30T09:09:10;14.63;;;11.90;;
61322;SDS011;47203;48.428;11.974;2024-01-30T09:11:14;15.40;;;11.63;;
61322;SDS011;47203;48.428;11.974;2024-01-30T09:13:18;17.27;;;12.73;;
61322;SDS011;47203;48.428;11.974;2024-01-30T09:15:23;24.92;;;15.85;;
61322;SDS011;47203;48.428;11.974;2024-01-30T09:17:27;21.90;;;15.13;;
61322;SDS011;47203;48.428;11.974;2024-01-30T09:19:31;22.23;;;15.23;;
61322;SDS011;47203;48.428;11.974;2024-01-30T09:21:35;17.77;;;13.55;;
61322;SDS011;47203;48.428;11.974;2024-01-30T09:23:38;24.73;;;16.92;;
61322;SDS011;47203;48.428;11.974;2024-01-30T09:25:42;21.88;;;15.05;;
61322;SDS011;47203;48.428;11.974;2024-01-30T09:27:46;21.38;;;14.63;;
61322;SDS011;47203;48.428;11.974;2024-01-30T09:29:50;20.45;;;14.50;;
61322;SDS011;47203;48.428;11.974;2024-01-30T09:31:55;28.23;;;18.60;;
61322;SDS011;47203;48.428;11.974;2024-01-30T09:33:58;42.70;;;26.50;;
61322;SDS011;47203;48.428;11.974;2024-01-30T09:36:01;33.25;;;21.60;;
61322;SDS011;47203;48.428;11.974;2024-01-30T09:38:05;22.73;;;16.58;;
61322;SDS011;47203;48.428;11.974;2024-01-30T09:40:09;18.75;;;14.50;;
61322;SDS011;47203;48.428;11.974;2024-01-30T09:42:16;16.58;;;11.93;;
61322;SDS011;47203;48.428;11.974;2024-01-30T09:44:30;18.45;;;12.40;;
61322;SDS011;47203;48.428;11.974;2024-01-30T09:46:37;13.50;;;11.73;;
61322;SDS011;47203;48.428;11.974;2024-01-30T09:48:43;16.80;;;11.43;;
61322;SDS011;47203;48.428;11.974;2024-01-30T09:50:49;18.73;;;12.02;;
61322;SDS011;47203;48.428;11.974;2024-01-30T09:52:54;18.75;;;12.55;;
61322;SDS011;47203;48.428;11.974;2024-01-30T09:55:01;22.52;;;14.48;;
61322;SDS011;47203;48.428;11.974;2024-01-30T09:57:05;18.75;;;13.88;;
61322;SDS011;47203;48.428;11.974;2024-01-30T09:59:08;17.08;;;12.35;;
61322;SDS011;47203;48.428;11.974;2024-01-30T10:01:12;15.10;;;12.10;;
61322;SDS011;47203;48.428;11.974;2024-01-30T10:03:20;17.27;;;13.10;;
61322;SDS011;47203;48.428;11.974;2024-01-30T10:05:26;17.58;;;13.07;;
61322;SDS011;47203;48.428;11.974;2024-01-30T10:07:35;20.45;;;13.35;;
61322;SDS011;47203;48.428;11.974;2024-01-30T10:09:39;15.88;;;13.93;;
61322;SDS011;47203;48.428;11.974;2024-01-30T10:11:42;19.00;;;14.52;;
61322;SDS011;47203;48.428;11.974;2024-01-30T10:13:46;16.08;;;13.35;;
61322;SDS011;47203;48.428;11.974;2024-01-30T10:15:49;17.98;;;14.75;;
61322;SDS011;47203;48.428;11.974;2024-01-30T10:17:53;18.55;;;15.35;;
61322;SDS011;47203;48.428;11.974;2024-01-30T10:19:58;18.45;;;15.45;;
61322;SDS011;47203;48.428;11.974;2024-01-30T10:22:04;18.02;;;15.20;;
61322;SDS011;47203;48.428;11.974;2024-01-30T10:24:08;16.77;;;13.35;;
61322;SDS011;47203;48.428;11.974;2024-01-30T10:26:15;15.05;;;11.93;;
61322;SDS011;47203;48.428;11.974;2024-01-30T10:28:19;7.78;;;6.97;;
61322;SDS011;47203;48.428;11.974;2024-01-30T10:30:24;5.90;;;4.50;;
61322;SDS011;47203;48.428;11.974;2024-01-30T10:32:27;6.82;;;5.15;;
61322;SDS011;47203;48.428;11.974;2024-01-30T10:34:31;6.03;;;3.97;;
61322;SDS011;47203;48.428;11.974;2024-01-30T10:36:38;5.53;;;4.60;;
61322;SDS011;47203;48.428;11.974;2024-01-30T10:38:45;8.02;;;5.10;;
61322;SDS011;47203;48.428;11.974;2024-01-30T10:40:53;5.40;;;4.20;;
61322;SDS011;47203;48.428;11.974;2024-01-30T10:43:00;6.45;;;4.00;;
61322;SDS011;47203;48.428;11.974;2024-01-30T10:45:07;5.32;;;3.47;;
61322;SDS011;47203;48.428;11.974;2024-01-30T10:47:12;5.18;;;4.13;;
61322;SDS011;47203;48.428;11.974;2024-01-30T10:49:21;5.53;;;4.25;;
61322;SDS011;47203;48.428;11.974;2024-01-30T10:51:27;5.70;;;3.83;;
61322;SDS011;47203;48.428;11.974;2024-01-30T10:53:31;6.15;;;4.85;;
61322;SDS011;47203;48.428;11.974;2024-01-30T10:55:37;5.88;;;4.32;;
61322;SDS011;47203;48.428;11.974;2024-01-30T10:57:42;6.20;;;4.43;;
61322;SDS011;47203;48.428;11.974;2024-01-30T10:59:46;5.55;;;4.63;;
61322;SDS011;47203;48.428;11.974;2024-01-30T11:01:51;7.38;;;4.35;;
61322;SDS011;47203;48.428;11.974;2024-01-30T11:03:54;6.35;;;4.50;;
61322;SDS011;47203;48.428;11.974;2024-01-30T11:06:00;8.05;;;5.03;;
61322;SDS011;47203;48.428;11.974;2024-01-30T11:08:13;4.35;;;3.78;;
61322;SDS011;47203;48.428;11.974;2024-01-30T11:10:16;5.90;;;4.18;;
61322;SDS011;47203;48.428;11.974;2024-01-30T11:12:23;5.80;;;4.28;;
61322;SDS011;47203;48.428;11.974;2024-01-30T11:14:29;6.97;;;4.45;;
61322;SDS011;47203;48.428;11.974;2024-01-30T11:16:33;6.22;;;4.40;;
61322;SDS011;47203;48.428;11.974;2024-01-30T11:18:36;7.10;;;4.85;;
61322;SDS011;47203;48.428;11.974;2024-01-30T11:20:39;6.18;;;4.78;;
61322;SDS011;47203;48.428;11.974;2024-01-30T11:22:50;5.05;;;4.03;;
61322;SDS011;47203;48.428;11.974;2024-01-30T11:24:55;4.95;;;3.72;;
61322;SDS011;47203;48.428;11.974;2024-01-30T11:26:59;6.38;;;4.72;;
61322;SDS011;47203;48.428;11.974;2024-01-30T11:29:06;6.38;;;4.55;;
61322;SDS011;47203;48.428;11.974;2024-01-30T11:31:11;6.25;;;4.30;;
61322;SDS011;47203;48.428;11.974;2024-01-30T11:33:29;7.15;;;5.05;;
61322;SDS011;47203;48.428;11.974;2024-01-30T11:35:35;6.35;;;4.75;;
61322;SDS011;47203;48.428;11.974;2024-01-30T11:37:41;6.50;;;4.95;;
61322;SDS011;47203;48.428;11.974;2024-01-30T11:39:50;5.75;;;5.13;;
61322;SDS011;47203;48.428;11.974;2024-01-30T11:41:55;7.30;;;4.30;;
61322;SDS011;47203;48.428;11.974;2024-01-30T11:44:03;5.18;;;3.97;;
61322;SDS011;47203;48.428;11.974;2024-01-30T11:46:08;6.00;;;4.18;;
61322;SDS011;47203;48.428;11.974;2024-01-30T11:48:12;5.50;;;4.18;;
61322;SDS011;47203;48.428;11.974;2024-01-30T11:50:16;5.63;;;4.55;;
61322;SDS011;47203;48.428;11.974;2024-01-30T11:52:20;5.93;;;3.92;;
61322;SDS011;47203;48.428;11.974;2024-01-30T11:54:23;6.35;;;4.55;;
61322;SDS011;47203;48.428;11.974;2024-01-30T11:56:27;6.93;;;4.45;;
61322;SDS011;47203;48.428;11.974;2024-01-30T11:58:31;5.03;;;3.95;;
61322;SDS011;47203;48.428;11.974;2024-01-30T12:00:36;6.63;;;4.35;;
61322;SDS011;47203;48.428;11.974;2024-01-30T12:02:41;5.13;;;4.00;;
61322;SDS011;47203;48.428;11.974;2024-01-30T12:06:50;4.75;;;3.50;;
61322;SDS011;47203;48.428;11.974;2024-01-30T12:08:56;5.72;;;3.78;;
61322;SDS011;47203;48.428;11.974;2024-01-30T12:11:01;12.88;;;9.30;;
61322;SDS011;47203;48.428;11.974;2024-01-30T12:13:07;7.43;;;6.05;;
61322;SDS011;47203;48.428;11.974;2024-01-30T12:15:10;5.60;;;4.25;;